page 4519 of 1011680 registered users

eBook PostsUsers

  1. 0butter00dry registered @ 2012-11-20 13:06:08, last login @ 2012-11-20 13:06:08
  2. 0slope9goat registered @ 2012-11-20 13:06:10, last login @ 2012-11-20 13:06:10
  3. 0pain65hour registered @ 2012-11-20 13:06:27, last login @ 2012-11-20 13:06:27
  4. 0bottomicicle20 registered @ 2012-11-20 13:06:38, last login @ 2012-11-20 13:06:38
  5. 0krsudhar registered @ 2012-11-20 13:07:33, last login @ 2012-11-20 13:07:33
  6. 0sampan8tax registered @ 2012-11-20 13:08:08, last login @ 2012-11-20 13:08:08
  7. 0copperwhale23 registered @ 2012-11-20 13:09:05, last login @ 2012-11-20 13:09:05
  8. 0trout8beam registered @ 2012-11-20 13:09:43, last login @ 2012-11-20 13:09:43
  9. 0hyenasystem3 registered @ 2012-11-20 13:10:37, last login @ 2012-11-20 13:10:37
  10. 0domain2couch registered @ 2012-11-20 13:12:19, last login @ 2012-11-20 13:12:19
  11. 0marythrone00 registered @ 2012-11-20 13:12:35, last login @ 2012-11-20 13:12:35
  12. 0weekmonth02 registered @ 2012-11-20 13:13:09, last login @ 2012-11-20 13:13:09
  13. 0palm65nest registered @ 2012-11-20 13:13:15, last login @ 2012-11-20 13:13:15
  14. 0portvein1 registered @ 2012-11-20 13:14:17, last login @ 2012-11-20 13:14:17
  15. 0fibre9router registered @ 2012-11-20 13:15:32, last login @ 2012-11-20 13:15:32
  16. 0bath14mice registered @ 2012-11-20 13:15:33, last login @ 2012-11-20 13:15:33
  17. 0wiresalmon4 registered @ 2012-11-20 13:15:43, last login @ 2012-11-20 13:15:43
  18. 0base6joke registered @ 2012-11-20 13:16:11, last login @ 2012-11-20 13:16:11
  19. 0cheeseknife05 registered @ 2012-11-20 13:16:46, last login @ 2012-11-20 13:16:46
  20. 0stove39prison registered @ 2012-11-20 13:16:52, last login @ 2012-11-20 13:16:52
  21. 0debtor3hat registered @ 2012-11-20 13:17:08, last login @ 2012-11-20 13:17:08
  22. 0dew8helen registered @ 2012-11-20 13:18:28, last login @ 2012-11-20 13:18:28
  23. 0beastmargin40 registered @ 2012-11-20 13:19:03, last login @ 2012-11-20 13:19:03
  24. 0netcircle8 registered @ 2012-11-20 13:19:06, last login @ 2012-11-20 13:19:06
  25. 0leekcolon9 registered @ 2012-11-20 13:19:19, last login @ 2012-11-20 13:19:19
  26. 0strawman20 registered @ 2012-11-20 13:20:54, last login @ 2012-11-20 13:45:55
  27. 0enemy4liquor registered @ 2012-11-20 13:20:57, last login @ 2012-11-20 13:20:57
  28. 0debtor378 registered @ 2012-11-20 13:21:07, last login @ 2012-11-20 13:21:07
  29. 0seasongame0 registered @ 2012-11-20 13:21:20, last login @ 2012-11-20 13:21:20
  30. 0palm6lycra registered @ 2012-11-20 13:21:28, last login @ 2012-11-20 13:21:28
  31. 0margaretha registered @ 2012-11-20 13:22:01, last login @ 2012-11-20 13:22:01
  32. 0reward2march registered @ 2012-11-20 13:22:18, last login @ 2012-11-20 13:22:18
  33. 0alloybag2 registered @ 2012-11-20 13:23:51, last login @ 2012-11-20 13:23:51
  34. 0jewel96bar registered @ 2012-11-20 13:24:35, last login @ 2012-11-20 13:24:35
  35. 0snailbucket94 registered @ 2012-11-20 13:24:35, last login @ 2012-11-20 13:24:35
  36. 0wardeath82 registered @ 2012-11-20 13:24:49, last login @ 2012-11-20 13:24:49
  37. 0carolframe6 registered @ 2012-11-20 13:25:17, last login @ 2012-11-20 13:25:17
  38. 0radarsister1 registered @ 2012-11-20 13:25:23, last login @ 2012-11-20 13:25:23
  39. 0pintdrawer98 registered @ 2012-11-20 13:25:32, last login @ 2012-11-20 13:25:32
  40. 0kettlejail6 registered @ 2012-11-20 13:25:59, last login @ 2012-11-20 13:25:59
  41. 0pointgeorge03 registered @ 2012-11-20 13:26:28, last login @ 2012-11-20 13:46:16
  42. 0croppatio4 registered @ 2012-11-20 13:26:32, last login @ 2012-11-20 13:26:32
  43. 0phone7butter registered @ 2012-11-20 13:27:21, last login @ 2012-11-20 13:27:21
  44. 0actmetal59 registered @ 2012-11-20 13:27:41, last login @ 2012-11-20 13:27:41
  45. 0shearsarch2 registered @ 2012-11-20 13:27:55, last login @ 2012-11-20 13:27:55
  46. 0border66suit registered @ 2012-11-20 13:28:36, last login @ 2012-11-20 13:28:36
  47. 0zoobridge43 registered @ 2012-11-20 13:29:31, last login @ 2012-11-20 13:29:31
  48. 0grousecross33 registered @ 2012-11-20 13:29:58, last login @ 2012-11-20 13:29:58
  49. 0area33temper registered @ 2012-11-20 13:32:05, last login @ 2012-11-20 13:32:05
  50. 0carpwave1 registered @ 2012-11-20 13:32:07, last login @ 2012-11-20 13:32:07
  51. 0lutecard7 registered @ 2012-11-20 13:32:20, last login @ 2012-11-20 13:32:20
  52. 0cocoa02satin registered @ 2012-11-20 13:32:20, last login @ 2012-11-20 13:32:20
  53. 0bottlefood60 registered @ 2012-11-20 13:33:03, last login @ 2012-11-20 13:33:03
  54. 0norfelalen1633 registered @ 2012-11-20 13:33:41, last login @ 2012-11-20 13:33:41
  55. 0veil8jaw registered @ 2012-11-20 13:33:43, last login @ 2012-11-20 13:33:43
  56. 0hairbed29 registered @ 2012-11-20 13:34:43, last login @ 2012-11-20 13:34:43
  57. 0sign85bronze registered @ 2012-11-20 13:35:06, last login @ 2012-11-20 13:35:06
  58. 0cottonflight59 registered @ 2012-11-20 13:38:59, last login @ 2012-11-20 13:38:59
  59. 0brow7monday registered @ 2012-11-20 13:39:28, last login @ 2012-11-20 13:39:28
  60. 0mexico55chess registered @ 2012-11-20 13:40:43, last login @ 2012-11-20 13:40:43
  61. 0slip6result registered @ 2012-11-20 13:40:46, last login @ 2012-11-20 13:40:46
  62. 0wheel4city registered @ 2012-11-20 13:42:12, last login @ 2012-11-20 13:42:12
  63. 0playdahlia43 registered @ 2012-11-20 13:42:31, last login @ 2012-11-20 13:42:31
  64. 0margaretcortall registered @ 2012-11-20 13:42:59, last login @ 2012-11-20 13:42:59
  65. 0ox63flax registered @ 2012-11-20 13:43:15, last login @ 2012-11-20 13:43:15
  66. 0saw76brain registered @ 2012-11-20 13:43:29, last login @ 2012-11-20 13:43:29
  67. 0Adeline369 registered @ 2012-11-20 13:44:58, last login @ 2012-11-20 13:44:58
  68. 0germanwalk11 registered @ 2012-11-20 13:45:49, last login @ 2012-11-20 13:45:49
  69. 0swisstheory0 registered @ 2012-11-20 13:46:08, last login @ 2012-11-20 13:46:08
  70. 0threadpants23 registered @ 2012-11-20 13:46:55, last login @ 2012-11-20 13:46:55
  71. 0birth0santa registered @ 2012-11-20 13:47:08, last login @ 2012-11-20 13:47:08
  72. 0sandra16twig registered @ 2012-11-20 13:48:22, last login @ 2012-11-20 13:48:22
  73. 0plate01farm registered @ 2012-11-20 13:48:32, last login @ 2012-11-20 13:48:32
  74. 0gender47olive registered @ 2012-11-20 13:50:23, last login @ 2012-11-20 13:50:23
  75. 0grape5cymbal registered @ 2012-11-20 13:51:15, last login @ 2012-11-20 13:51:15
  76. 0violadance77 registered @ 2012-11-20 13:53:00, last login @ 2012-11-20 13:53:00
  77. 0mole53bird registered @ 2012-11-20 13:54:38, last login @ 2012-11-20 13:54:38
  78. 0alloyarcher78 registered @ 2012-11-20 13:55:59, last login @ 2012-11-20 13:55:59
  79. 0mine3rose registered @ 2012-11-20 13:57:07, last login @ 2012-11-20 13:57:07
  80. 0margin66modem registered @ 2012-11-20 13:57:08, last login @ 2012-11-20 13:57:08
  81. 0stone6trowel registered @ 2012-11-20 13:58:15, last login @ 2012-11-20 13:58:15
  82. 0bat87cub registered @ 2012-11-20 13:58:44, last login @ 2012-11-20 13:58:44
  83. 0tub0lamb registered @ 2012-11-20 13:59:41, last login @ 2012-11-20 13:59:41
  84. 0cd9donkey registered @ 2012-11-20 13:59:54, last login @ 2012-11-20 13:59:54
  85. 0white12tune registered @ 2012-11-20 14:00:27, last login @ 2012-11-20 14:00:27
  86. 0beeturkey36 registered @ 2012-11-20 14:01:14, last login @ 2012-11-20 14:01:14
  87. 0hammer2pipe registered @ 2012-11-20 14:02:20, last login @ 2012-11-20 14:37:25
  88. 0lajcsicska registered @ 2012-11-20 14:02:46, last login @ 2012-11-20 14:12:47
  89. 0sampanparcel01 registered @ 2012-11-20 14:03:02, last login @ 2012-11-20 14:03:02
  90. 0birch789 registered @ 2012-11-20 14:03:53, last login @ 2012-11-20 14:03:53
  91. 0gander3trade registered @ 2012-11-20 14:04:28, last login @ 2012-11-20 14:04:28
  92. 0family53weapon registered @ 2012-11-20 14:04:56, last login @ 2012-11-20 14:04:56
  93. 0female0town registered @ 2012-11-20 14:05:18, last login @ 2012-11-20 14:05:18
  94. 0llama3boot registered @ 2012-11-20 14:05:31, last login @ 2012-11-20 14:26:25
  95. 0mask1coach registered @ 2012-11-20 14:05:34, last login @ 2012-11-20 14:05:34
  96. 0map7hood registered @ 2012-11-20 14:06:00, last login @ 2012-11-20 14:06:00
  97. 0woolstar78 registered @ 2012-11-20 14:06:26, last login @ 2012-11-20 14:06:26
  98. 0glider6call registered @ 2012-11-20 14:06:28, last login @ 2012-11-20 14:06:28
  99. 0light3meter registered @ 2012-11-20 14:10:14, last login @ 2012-11-20 14:10:14
  100. 0riddlebotany96 registered @ 2012-11-20 14:10:24, last login @ 2012-11-20 14:47:14
  101. 0cirrus0bit registered @ 2012-11-20 14:14:44, last login @ 2012-11-20 14:14:44

More...

[4529] [4528] [4527] [4526] [4525] [4524] [4523] [4522] [4521] [4520] [4519] [4518] [4517] [4516] [4515] [4514] [4513] [4512] [4511] [4510] ...[1]
Back to Top